sensor_id;sensor_type;location;lat;lon;timestamp;P1;durP1;ratioP1;P2;durP2;ratioP2
14001;SDS011;7076;51.280;12.584;2024-02-26T00:00:34;7.43;;;4.93;;
14001;SDS011;7076;51.280;12.584;2024-02-26T00:05:37;6.47;;;4.53;;
14001;SDS011;7076;51.280;12.584;2024-02-26T00:10:42;6.37;;;4.23;;
14001;SDS011;7076;51.280;12.584;2024-02-26T00:15:45;5.97;;;3.93;;
14001;SDS011;7076;51.280;12.584;2024-02-26T00:20:47;7.87;;;4.90;;
14001;SDS011;7076;51.280;12.584;2024-02-26T00:25:52;7.73;;;4.00;;
14001;SDS011;7076;51.280;12.584;2024-02-26T00:30:55;6.83;;;5.13;;
14001;SDS011;7076;51.280;12.584;2024-02-26T00:35:58;6.87;;;4.50;;
14001;SDS011;7076;51.280;12.584;2024-02-26T00:41:02;6.70;;;4.70;;
14001;SDS011;7076;51.280;12.584;2024-02-26T00:46:05;5.87;;;4.53;;
14001;SDS011;7076;51.280;12.584;2024-02-26T00:51:08;8.57;;;5.20;;
14001;SDS011;7076;51.280;12.584;2024-02-26T00:56:12;8.27;;;5.80;;
14001;SDS011;7076;51.280;12.584;2024-02-26T01:01:15;8.47;;;6.23;;
14001;SDS011;7076;51.280;12.584;2024-02-26T01:06:18;8.50;;;5.77;;
14001;SDS011;7076;51.280;12.584;2024-02-26T01:11:22;6.87;;;5.03;;
14001;SDS011;7076;51.280;12.584;2024-02-26T01:16:25;7.63;;;5.70;;
14001;SDS011;7076;51.280;12.584;2024-02-26T01:21:30;9.97;;;6.07;;
14001;SDS011;7076;51.280;12.584;2024-02-26T01:26:34;10.13;;;6.37;;
14001;SDS011;7076;51.280;12.584;2024-02-26T01:31:37;9.17;;;6.30;;
14001;SDS011;7076;51.280;12.584;2024-02-26T01:36:40;9.33;;;5.27;;
14001;SDS011;7076;51.280;12.584;2024-02-26T01:41:44;7.87;;;5.70;;
14001;SDS011;7076;51.280;12.584;2024-02-26T01:46:47;11.37;;;6.23;;
14001;SDS011;7076;51.280;12.584;2024-02-26T01:51:50;10.43;;;6.30;;
14001;SDS011;7076;51.280;12.584;2024-02-26T01:56:54;8.37;;;5.80;;
14001;SDS011;7076;51.280;12.584;2024-02-26T02:01:58;10.17;;;5.73;;
14001;SDS011;7076;51.280;12.584;2024-02-26T02:07:01;8.73;;;5.63;;
14001;SDS011;7076;51.280;12.584;2024-02-26T02:12:06;8.93;;;6.10;;
14001;SDS011;7076;51.280;12.584;2024-02-26T02:17:09;9.23;;;5.67;;
14001;SDS011;7076;51.280;12.584;2024-02-26T02:22:13;9.47;;;5.73;;
14001;SDS011;7076;51.280;12.584;2024-02-26T02:27:16;8.80;;;5.33;;
14001;SDS011;7076;51.280;12.584;2024-02-26T02:32:19;7.83;;;5.00;;
14001;SDS011;7076;51.280;12.584;2024-02-26T02:37:24;8.00;;;5.27;;
14001;SDS011;7076;51.280;12.584;2024-02-26T02:42:27;7.87;;;5.50;;
14001;SDS011;7076;51.280;12.584;2024-02-26T02:47:29;8.13;;;5.37;;
14001;SDS011;7076;51.280;12.584;2024-02-26T02:52:33;8.47;;;5.50;;
14001;SDS011;7076;51.280;12.584;2024-02-26T02:57:36;6.63;;;5.13;;
14001;SDS011;7076;51.280;12.584;2024-02-26T03:02:42;8.23;;;5.57;;
14001;SDS011;7076;51.280;12.584;2024-02-26T03:07:47;8.40;;;5.40;;
14001;SDS011;7076;51.280;12.584;2024-02-26T03:12:50;6.57;;;4.90;;
14001;SDS011;7076;51.280;12.584;2024-02-26T03:17:53;7.10;;;5.10;;
14001;SDS011;7076;51.280;12.584;2024-02-26T03:22:57;7.83;;;5.07;;
14001;SDS011;7076;51.280;12.584;2024-02-26T03:28:00;6.83;;;4.93;;
14001;SDS011;7076;51.280;12.584;2024-02-26T03:33:03;7.30;;;4.83;;
14001;SDS011;7076;51.280;12.584;2024-02-26T03:38:07;7.87;;;5.17;;
14001;SDS011;7076;51.280;12.584;2024-02-26T03:43:10;7.03;;;4.83;;
14001;SDS011;7076;51.280;12.584;2024-02-26T03:48:14;7.83;;;5.67;;
14001;SDS011;7076;51.280;12.584;2024-02-26T04:00:06;9.40;;;6.03;;
14001;SDS011;7076;51.280;12.584;2024-02-26T04:05:13;8.80;;;5.70;;
14001;SDS011;7076;51.280;12.584;2024-02-26T04:10:16;9.17;;;6.83;;
14001;SDS011;7076;51.280;12.584;2024-02-26T04:15:20;7.97;;;6.10;;
14001;SDS011;7076;51.280;12.584;2024-02-26T04:20:23;8.43;;;6.10;;
14001;SDS011;7076;51.280;12.584;2024-02-26T04:25:26;9.30;;;6.10;;
14001;SDS011;7076;51.280;12.584;2024-02-26T04:30:31;9.83;;;7.10;;
14001;SDS011;7076;51.280;12.584;2024-02-26T04:35:34;11.00;;;7.13;;
14001;SDS011;7076;51.280;12.584;2024-02-26T04:40:37;10.37;;;6.70;;
14001;SDS011;7076;51.280;12.584;2024-02-26T04:45:41;11.43;;;7.40;;
14001;SDS011;7076;51.280;12.584;2024-02-26T04:50:44;10.90;;;7.50;;
14001;SDS011;7076;51.280;12.584;2024-02-26T04:55:47;12.20;;;8.43;;
14001;SDS011;7076;51.280;12.584;2024-02-26T05:00:51;13.23;;;8.07;;
14001;SDS011;7076;51.280;12.584;2024-02-26T05:05:54;12.37;;;7.47;;
14001;SDS011;7076;51.280;12.584;2024-02-26T05:10:59;13.10;;;8.27;;
14001;SDS011;7076;51.280;12.584;2024-02-26T05:16:05;13.77;;;8.80;;
14001;SDS011;7076;51.280;12.584;2024-02-26T05:21:08;14.53;;;8.53;;
14001;SDS011;7076;51.280;12.584;2024-02-26T05:26:11;14.60;;;7.80;;
14001;SDS011;7076;51.280;12.584;2024-02-26T05:31:15;14.70;;;8.67;;
14001;SDS011;7076;51.280;12.584;2024-02-26T05:36:19;11.63;;;8.00;;
14001;SDS011;7076;51.280;12.584;2024-02-26T05:41:23;14.90;;;8.50;;
14001;SDS011;7076;51.280;12.584;2024-02-26T05:46:29;11.03;;;6.97;;
14001;SDS011;7076;51.280;12.584;2024-02-26T05:51:31;11.93;;;8.13;;
14001;SDS011;7076;51.280;12.584;2024-02-26T05:56:34;11.13;;;7.37;;
14001;SDS011;7076;51.280;12.584;2024-02-26T06:01:38;10.90;;;8.67;;
14001;SDS011;7076;51.280;12.584;2024-02-26T06:06:41;16.20;;;9.60;;
14001;SDS011;7076;51.280;12.584;2024-02-26T06:11:44;15.60;;;8.17;;
14001;SDS011;7076;51.280;12.584;2024-02-26T06:16:49;12.70;;;8.60;;
14001;SDS011;7076;51.280;12.584;2024-02-26T06:21:51;14.80;;;8.27;;
14001;SDS011;7076;51.280;12.584;2024-02-26T06:26:54;12.03;;;7.70;;
14001;SDS011;7076;51.280;12.584;2024-02-26T06:31:58;11.57;;;8.13;;
14001;SDS011;7076;51.280;12.584;2024-02-26T06:37:01;13.90;;;8.20;;
14001;SDS011;7076;51.280;12.584;2024-02-26T06:42:05;10.27;;;7.10;;
14001;SDS011;7076;51.280;12.584;2024-02-26T06:47:09;11.93;;;7.27;;
14001;SDS011;7076;51.280;12.584;2024-02-26T06:52:13;11.47;;;7.17;;
14001;SDS011;7076;51.280;12.584;2024-02-26T06:57:15;11.87;;;7.30;;
14001;SDS011;7076;51.280;12.584;2024-02-26T07:02:20;9.43;;;6.77;;
14001;SDS011;7076;51.280;12.584;2024-02-26T07:07:22;11.10;;;7.83;;
14001;SDS011;7076;51.280;12.584;2024-02-26T07:12:25;11.87;;;6.73;;
14001;SDS011;7076;51.280;12.584;2024-02-26T07:17:30;13.60;;;7.23;;
14001;SDS011;7076;51.280;12.584;2024-02-26T07:22:32;10.77;;;7.90;;
14001;SDS011;7076;51.280;12.584;2024-02-26T07:27:35;13.43;;;8.47;;
14001;SDS011;7076;51.280;12.584;2024-02-26T07:32:39;13.50;;;7.80;;
14001;SDS011;7076;51.280;12.584;2024-02-26T07:37:42;11.53;;;8.00;;
14001;SDS011;7076;51.280;12.584;2024-02-26T07:42:45;12.57;;;7.67;;
14001;SDS011;7076;51.280;12.584;2024-02-26T07:47:50;10.33;;;6.90;;
14001;SDS011;7076;51.280;12.584;2024-02-26T07:52:53;8.30;;;6.23;;
14001;SDS011;7076;51.280;12.584;2024-02-26T07:57:56;10.07;;;6.40;;
14001;SDS011;7076;51.280;12.584;2024-02-26T08:03:00;7.97;;;6.47;;
14001;SDS011;7076;51.280;12.584;2024-02-26T08:08:04;41.73;;;9.10;;
14001;SDS011;7076;51.280;12.584;2024-02-26T08:13:07;12.23;;;6.73;;
14001;SDS011;7076;51.280;12.584;2024-02-26T08:18:12;11.97;;;6.03;;
14001;SDS011;7076;51.280;12.584;2024-02-26T08:23:15;11.73;;;6.23;;
14001;SDS011;7076;51.280;12.584;2024-02-26T08:28:18;7.93;;;5.93;;
14001;SDS011;7076;51.280;12.584;2024-02-26T08:33:22;10.10;;;6.03;;
14001;SDS011;7076;51.280;12.584;2024-02-26T08:38:25;10.40;;;6.20;;
14001;SDS011;7076;51.280;12.584;2024-02-26T08:43:28;7.63;;;5.90;;
14001;SDS011;7076;51.280;12.584;2024-02-26T08:48:32;9.80;;;6.37;;
14001;SDS011;7076;51.280;12.584;2024-02-26T08:53:35;11.43;;;6.33;;
14001;SDS011;7076;51.280;12.584;2024-02-26T08:58:44;10.20;;;5.57;;
14001;SDS011;7076;51.280;12.584;2024-02-26T09:03:51;10.85;;;5.85;;
14001;SDS011;7076;51.280;12.584;2024-02-26T09:08:54;6.20;;;4.67;;
14001;SDS011;7076;51.280;12.584;2024-02-26T09:14:01;8.55;;;4.82;;
14001;SDS011;7076;51.280;12.584;2024-02-26T09:19:06;6.15;;;4.00;;
14001;SDS011;7076;51.280;12.584;2024-02-26T09:24:09;8.93;;;4.13;;
14001;SDS011;7076;51.280;12.584;2024-02-26T09:29:12;5.05;;;3.58;;
14001;SDS011;7076;51.280;12.584;2024-02-26T09:34:16;9.60;;;3.78;;
14001;SDS011;7076;51.280;12.584;2024-02-26T09:39:19;6.10;;;3.88;;
14001;SDS011;7076;51.280;12.584;2024-02-26T09:44:23;4.80;;;3.30;;
14001;SDS011;7076;51.280;12.584;2024-02-26T09:49:28;4.53;;;3.33;;
14001;SDS011;7076;51.280;12.584;2024-02-26T09:54:31;4.82;;;3.33;;
14001;SDS011;7076;51.280;12.584;2024-02-26T09:59:36;5.88;;;3.40;;
14001;SDS011;7076;51.280;12.584;2024-02-26T10:04:43;4.82;;;3.53;;
14001;SDS011;7076;51.280;12.584;2024-02-26T10:09:52;7.30;;;3.40;;
14001;SDS011;7076;51.280;12.584;2024-02-26T10:14:55;7.78;;;3.40;;
14001;SDS011;7076;51.280;12.584;2024-02-26T10:20:11;6.55;;;3.50;;
14001;SDS011;7076;51.280;12.584;2024-02-26T10:25:14;8.45;;;4.43;;
14001;SDS011;7076;51.280;12.584;2024-02-26T10:30:18;6.32;;;3.38;;
14001;SDS011;7076;51.280;12.584;2024-02-26T10:35:24;4.57;;;3.40;;
14001;SDS011;7076;51.280;12.584;2024-02-26T10:40:27;4.25;;;3.55;;
14001;SDS011;7076;51.280;12.584;2024-02-26T10:45:31;6.75;;;3.53;;
14001;SDS011;7076;51.280;12.584;2024-02-26T10:50:39;4.72;;;3.38;;
14001;SDS011;7076;51.280;12.584;2024-02-26T10:55:43;6.28;;;3.90;;
14001;SDS011;7076;51.280;12.584;2024-02-26T11:00:49;5.75;;;3.55;;
14001;SDS011;7076;51.280;12.584;2024-02-26T11:05:54;5.75;;;3.22;;
14001;SDS011;7076;51.280;12.584;2024-02-26T11:10:59;6.93;;;3.65;;
14001;SDS011;7076;51.280;12.584;2024-02-26T11:16:02;5.57;;;3.58;;
14001;SDS011;7076;51.280;12.584;2024-02-26T11:21:07;5.75;;;4.18;;
14001;SDS011;7076;51.280;12.584;2024-02-26T11:26:10;6.70;;;4.00;;
14001;SDS011;7076;51.280;12.584;2024-02-26T11:31:13;8.52;;;3.72;;
14001;SDS011;7076;51.280;12.584;2024-02-26T11:36:18;5.35;;;3.53;;
14001;SDS011;7076;51.280;12.584;2024-02-26T11:41:21;5.13;;;3.70;;
14001;SDS011;7076;51.280;12.584;2024-02-26T11:46:25;7.55;;;3.67;;
14001;SDS011;7076;51.280;12.584;2024-02-26T11:51:32;5.95;;;4.20;;
14001;SDS011;7076;51.280;12.584;2024-02-26T11:56:40;6.55;;;4.03;;
14001;SDS011;7076;51.280;12.584;2024-02-26T12:01:43;6.65;;;4.40;;
14001;SDS011;7076;51.280;12.584;2024-02-26T12:06:55;9.25;;;4.97;;
14001;SDS011;7076;51.280;12.584;2024-02-26T12:11:59;10.80;;;4.82;;
14001;SDS011;7076;51.280;12.584;2024-02-26T12:17:03;5.78;;;4.10;;
14001;SDS011;7076;51.280;12.584;2024-02-26T12:22:10;7.53;;;4.40;;
14001;SDS011;7076;51.280;12.584;2024-02-26T12:27:15;9.55;;;4.22;;
14001;SDS011;7076;51.280;12.584;2024-02-26T12:32:18;8.18;;;5.22;;
14001;SDS011;7076;51.280;12.584;2024-02-26T12:37:22;6.53;;;5.03;;
14001;SDS011;7076;51.280;12.584;2024-02-26T12:42:25;7.47;;;4.93;;
14001;SDS011;7076;51.280;12.584;2024-02-26T12:47:28;7.63;;;4.20;;
14001;SDS011;7076;51.280;12.584;2024-02-26T12:52:32;7.97;;;4.68;;
14001;SDS011;7076;51.280;12.584;2024-02-26T12:57:36;6.97;;;4.53;;
14001;SDS011;7076;51.280;12.584;2024-02-26T13:02:40;7.38;;;4.95;;
14001;SDS011;7076;51.280;12.584;2024-02-26T13:07:46;8.30;;;5.05;;
14001;SDS011;7076;51.280;12.584;2024-02-26T13:12:49;19.02;;;5.50;;
14001;SDS011;7076;51.280;12.584;2024-02-26T13:17:52;7.03;;;4.85;;
14001;SDS011;7076;51.280;12.584;2024-02-26T13:23:02;5.97;;;4.05;;
14001;SDS011;7076;51.280;12.584;2024-02-26T13:28:07;6.70;;;4.93;;
14001;SDS011;7076;51.280;12.584;2024-02-26T13:33:11;7.28;;;4.57;;
14001;SDS011;7076;51.280;12.584;2024-02-26T13:38:16;7.50;;;4.40;;
14001;SDS011;7076;51.280;12.584;2024-02-26T13:43:19;12.95;;;5.10;;
14001;SDS011;7076;51.280;12.584;2024-02-26T13:48:22;6.70;;;4.80;;
14001;SDS011;7076;51.280;12.584;2024-02-26T13:53:28;15.88;;;5.47;;
14001;SDS011;7076;51.280;12.584;2024-02-26T13:58:35;7.00;;;5.15;;
14001;SDS011;7076;51.280;12.584;2024-02-26T14:03:38;23.52;;;6.38;;
14001;SDS011;7076;51.280;12.584;2024-02-26T14:08:42;7.15;;;4.88;;
14001;SDS011;7076;51.280;12.584;2024-02-26T14:13:45;4.95;;;4.38;;
14001;SDS011;7076;51.280;12.584;2024-02-26T14:18:49;7.70;;;4.63;;
14001;SDS011;7076;51.280;12.584;2024-02-26T14:23:53;6.50;;;3.83;;
14001;SDS011;7076;51.280;12.584;2024-02-26T14:28:57;4.13;;;3.25;;
14001;SDS011;7076;51.280;12.584;2024-02-26T14:34:00;4.82;;;3.38;;
14001;SDS011;7076;51.280;12.584;2024-02-26T14:39:04;5.40;;;3.65;;
14001;SDS011;7076;51.280;12.584;2024-02-26T14:44:07;3.92;;;3.17;;
14001;SDS011;7076;51.280;12.584;2024-02-26T14:49:10;5.25;;;3.50;;
14001;SDS011;7076;51.280;12.584;2024-02-26T14:54:16;5.90;;;3.05;;
14001;SDS011;7076;51.280;12.584;2024-02-26T14:59:19;3.80;;;3.08;;
14001;SDS011;7076;51.280;12.584;2024-02-26T15:04:22;4.30;;;2.72;;
14001;SDS011;7076;51.280;12.584;2024-02-26T15:09:26;4.57;;;3.20;;
14001;SDS011;7076;51.280;12.584;2024-02-26T15:14:29;5.60;;;3.03;;
14001;SDS011;7076;51.280;12.584;2024-02-26T15:19:32;5.35;;;2.78;;
14001;SDS011;7076;51.280;12.584;2024-02-26T15:24:36;7.60;;;3.58;;
14001;SDS011;7076;51.280;12.584;2024-02-26T15:29:39;5.97;;;3.55;;
14001;SDS011;7076;51.280;12.584;2024-02-26T15:34:42;4.93;;;3.55;;
14001;SDS011;7076;51.280;12.584;2024-02-26T15:39:47;5.78;;;3.42;;
14001;SDS011;7076;51.280;12.584;2024-02-26T15:44:50;5.38;;;3.00;;
14001;SDS011;7076;51.280;12.584;2024-02-26T15:49:53;5.75;;;3.13;;
14001;SDS011;7076;51.280;12.584;2024-02-26T15:54:57;6.60;;;3.45;;
14001;SDS011;7076;51.280;12.584;2024-02-26T16:00:00;5.95;;;3.63;;
14001;SDS011;7076;51.280;12.584;2024-02-26T16:05:12;3.90;;;2.70;;
14001;SDS011;7076;51.280;12.584;2024-02-26T16:10:16;5.80;;;4.30;;
14001;SDS011;7076;51.280;12.584;2024-02-26T16:15:19;9.82;;;5.63;;
14001;SDS011;7076;51.280;12.584;2024-02-26T16:20:22;7.43;;;4.93;;
14001;SDS011;7076;51.280;12.584;2024-02-26T16:25:27;11.02;;;6.13;;
14001;SDS011;7076;51.280;12.584;2024-02-26T16:30:30;11.00;;;6.35;;
14001;SDS011;7076;51.280;12.584;2024-02-26T16:35:34;11.80;;;6.93;;
14001;SDS011;7076;51.280;12.584;2024-02-26T16:40:39;8.00;;;5.70;;
14001;SDS011;7076;51.280;12.584;2024-02-26T16:45:42;9.40;;;6.22;;
14001;SDS011;7076;51.280;12.584;2024-02-26T16:50:45;9.27;;;6.88;;
14001;SDS011;7076;51.280;12.584;2024-02-26T16:55:49;12.00;;;6.80;;
14001;SDS011;7076;51.280;12.584;2024-02-26T17:00:52;12.80;;;8.52;;
14001;SDS011;7076;51.280;12.584;2024-02-26T17:05:55;10.50;;;6.88;;
14001;SDS011;7076;51.280;12.584;2024-02-26T17:10:59;9.95;;;6.45;;
14001;SDS011;7076;51.280;12.584;2024-02-26T17:16:02;9.10;;;6.25;;
14001;SDS011;7076;51.280;12.584;2024-02-26T17:21:06;12.07;;;6.43;;
14001;SDS011;7076;51.280;12.584;2024-02-26T17:26:17;11.95;;;6.45;;
14001;SDS011;7076;51.280;12.584;2024-02-26T17:31:20;8.02;;;6.10;;
14001;SDS011;7076;51.280;12.584;2024-02-26T17:36:23;11.75;;;6.95;;
14001;SDS011;7076;51.280;12.584;2024-02-26T17:41:27;8.35;;;6.10;;
14001;SDS011;7076;51.280;12.584;2024-02-26T17:46:30;12.25;;;6.70;;
14001;SDS011;7076;51.280;12.584;2024-02-26T17:51:33;15.10;;;7.32;;
14001;SDS011;7076;51.280;12.584;2024-02-26T17:56:37;12.15;;;7.38;;
14001;SDS011;7076;51.280;12.584;2024-02-26T18:01:41;10.02;;;6.53;;
14001;SDS011;7076;51.280;12.584;2024-02-26T18:06:44;9.82;;;6.95;;
14001;SDS011;7076;51.280;12.584;2024-02-26T18:11:51;9.75;;;6.63;;
14001;SDS011;7076;51.280;12.584;2024-02-26T18:16:56;9.70;;;6.75;;
14001;SDS011;7076;51.280;12.584;2024-02-26T18:21:59;13.93;;;7.65;;
14001;SDS011;7076;51.280;12.584;2024-02-26T18:27:04;12.95;;;6.95;;
14001;SDS011;7076;51.280;12.584;2024-02-26T18:32:07;9.90;;;6.03;;
14001;SDS011;7076;51.280;12.584;2024-02-26T18:37:10;9.00;;;6.43;;
14001;SDS011;7076;51.280;12.584;2024-02-26T18:42:14;10.65;;;7.18;;
14001;SDS011;7076;51.280;12.584;2024-02-26T18:47:19;11.05;;;6.90;;
14001;SDS011;7076;51.280;12.584;2024-02-26T18:52:23;12.35;;;6.65;;
14001;SDS011;7076;51.280;12.584;2024-02-26T18:57:27;9.60;;;6.97;;
14001;SDS011;7076;51.280;12.584;2024-02-26T19:02:31;12.35;;;7.60;;
14001;SDS011;7076;51.280;12.584;2024-02-26T19:07:33;11.02;;;6.82;;
14001;SDS011;7076;51.280;12.584;2024-02-26T19:12:38;10.15;;;7.20;;
14001;SDS011;7076;51.280;12.584;2024-02-26T19:17:40;11.48;;;6.40;;
14001;SDS011;7076;51.280;12.584;2024-02-26T19:22:45;8.40;;;6.38;;
14001;SDS011;7076;51.280;12.584;2024-02-26T19:27:50;7.35;;;5.72;;
14001;SDS011;7076;51.280;12.584;2024-02-26T19:32:53;8.80;;;6.35;;
14001;SDS011;7076;51.280;12.584;2024-02-26T19:43:58;9.52;;;6.20;;
14001;SDS011;7076;51.280;12.584;2024-02-26T19:49:00;7.95;;;5.80;;
14001;SDS011;7076;51.280;12.584;2024-02-26T19:54:04;8.10;;;6.30;;
14001;SDS011;7076;51.280;12.584;2024-02-26T19:59:08;9.07;;;5.78;;
14001;SDS011;7076;51.280;12.584;2024-02-26T20:04:11;9.93;;;5.82;;
14001;SDS011;7076;51.280;12.584;2024-02-26T20:09:15;10.43;;;6.30;;
14001;SDS011;7076;51.280;12.584;2024-02-26T20:14:22;9.13;;;6.40;;
14001;SDS011;7076;51.280;12.584;2024-02-26T20:19:28;8.85;;;6.60;;
14001;SDS011;7076;51.280;12.584;2024-02-26T20:24:31;10.18;;;6.80;;
14001;SDS011;7076;51.280;12.584;2024-02-26T20:29:35;11.18;;;7.47;;
14001;SDS011;7076;51.280;12.584;2024-02-26T20:34:40;11.43;;;7.55;;
14001;SDS011;7076;51.280;12.584;2024-02-26T20:39:43;8.98;;;6.57;;
14001;SDS011;7076;51.280;12.584;2024-02-26T20:44:47;10.55;;;6.90;;
14001;SDS011;7076;51.280;12.584;2024-02-26T20:49:50;9.95;;;6.70;;
14001;SDS011;7076;51.280;12.584;2024-02-26T20:54:54;13.05;;;7.47;;
14001;SDS011;7076;51.280;12.584;2024-02-26T20:59:59;11.15;;;7.32;;
14001;SDS011;7076;51.280;12.584;2024-02-26T21:05:02;10.07;;;7.57;;
14001;SDS011;7076;51.280;12.584;2024-02-26T21:10:07;12.82;;;7.85;;
14001;SDS011;7076;51.280;12.584;2024-02-26T21:15:11;15.93;;;8.35;;
14001;SDS011;7076;51.280;12.584;2024-02-26T21:20:14;12.50;;;8.38;;
14001;SDS011;7076;51.280;12.584;2024-02-26T21:25:20;12.73;;;8.20;;
14001;SDS011;7076;51.280;12.584;2024-02-26T21:30:25;11.70;;;8.38;;
14001;SDS011;7076;51.280;12.584;2024-02-26T21:35:27;11.70;;;8.02;;
14001;SDS011;7076;51.280;12.584;2024-02-26T21:40:30;12.43;;;8.68;;
14001;SDS011;7076;51.280;12.584;2024-02-26T21:45:34;14.48;;;9.52;;
14001;SDS011;7076;51.280;12.584;2024-02-26T21:50:38;19.85;;;9.52;;
14001;SDS011;7076;51.280;12.584;2024-02-26T21:55:41;12.35;;;8.90;;
14001;SDS011;7076;51.280;12.584;2024-02-26T22:00:45;15.93;;;9.52;;
14001;SDS011;7076;51.280;12.584;2024-02-26T22:05:49;14.95;;;9.75;;
14001;SDS011;7076;51.280;12.584;2024-02-26T22:10:54;15.20;;;9.13;;
14001;SDS011;7076;51.280;12.584;2024-02-26T22:15:58;18.33;;;9.55;;
14001;SDS011;7076;51.280;12.584;2024-02-26T22:21:01;14.90;;;9.88;;
14001;SDS011;7076;51.280;12.584;2024-02-26T22:26:05;15.40;;;9.63;;
14001;SDS011;7076;51.280;12.584;2024-02-26T22:31:10;15.02;;;10.20;;
14001;SDS011;7076;51.280;12.584;2024-02-26T22:36:12;17.00;;;10.13;;
14001;SDS011;7076;51.280;12.584;2024-02-26T22:41:15;13.23;;;10.52;;
14001;SDS011;7076;51.280;12.584;2024-02-26T22:46:19;14.63;;;10.25;;
14001;SDS011;7076;51.280;12.584;2024-02-26T22:51:22;14.25;;;9.48;;
14001;SDS011;7076;51.280;12.584;2024-02-26T22:56:26;14.77;;;9.85;;
14001;SDS011;7076;51.280;12.584;2024-02-26T23:01:30;13.95;;;10.30;;
14001;SDS011;7076;51.280;12.584;2024-02-26T23:06:33;15.18;;;9.65;;
14001;SDS011;7076;51.280;12.584;2024-02-26T23:11:36;14.13;;;9.95;;
14001;SDS011;7076;51.280;12.584;2024-02-26T23:16:41;14.13;;;9.25;;
14001;SDS011;7076;51.280;12.584;2024-02-26T23:21:44;15.75;;;9.05;;
14001;SDS011;7076;51.280;12.584;2024-02-26T23:26:47;16.77;;;10.02;;
14001;SDS011;7076;51.280;12.584;2024-02-26T23:31:51;15.10;;;9.63;;
14001;SDS011;7076;51.280;12.584;2024-02-26T23:36:54;15.20;;;10.10;;
14001;SDS011;7076;51.280;12.584;2024-02-26T23:41:57;12.80;;;9.07;;
14001;SDS011;7076;51.280;12.584;2024-02-26T23:47:01;15.55;;;9.68;;
14001;SDS011;7076;51.280;12.584;2024-02-26T23:52:04;14.13;;;9.68;;
14001;SDS011;7076;51.280;12.584;2024-02-26T23:57:09;13.75;;;9.68;;
